sensor_id;sensor_type;location;lat;lon;timestamp;P1;durP1;ratioP1;P2;durP2;ratioP2
15082;SDS011;7640;53.116;6.878;2022-09-09T00:01:01;29.47;;;18.90;;
15082;SDS011;7640;53.116;6.878;2022-09-09T00:03:38;31.67;;;19.30;;
15082;SDS011;7640;53.116;6.878;2022-09-09T00:06:14;33.20;;;19.40;;
15082;SDS011;7640;53.116;6.878;2022-09-09T00:08:51;33.73;;;19.63;;
15082;SDS011;7640;53.116;6.878;2022-09-09T00:11:31;33.47;;;19.70;;
15082;SDS011;7640;53.116;6.878;2022-09-09T00:14:10;33.00;;;20.93;;
15082;SDS011;7640;53.116;6.878;2022-09-09T00:16:47;29.13;;;19.73;;
15082;SDS011;7640;53.116;6.878;2022-09-09T00:19:22;28.27;;;19.03;;
15082;SDS011;7640;53.116;6.878;2022-09-09T00:21:58;28.10;;;17.87;;
15082;SDS011;7640;53.116;6.878;2022-09-09T00:24:38;34.50;;;20.00;;
15082;SDS011;7640;53.116;6.878;2022-09-09T00:27:11;30.77;;;17.90;;
15082;SDS011;7640;53.116;6.878;2022-09-09T00:29:52;26.90;;;16.97;;
15082;SDS011;7640;53.116;6.878;2022-09-09T00:32:24;23.37;;;15.67;;
15082;SDS011;7640;53.116;6.878;2022-09-09T00:34:58;22.17;;;16.07;;
15082;SDS011;7640;53.116;6.878;2022-09-09T00:37:31;23.97;;;15.90;;
15082;SDS011;7640;53.116;6.878;2022-09-09T00:40:02;18.67;;;14.27;;
15082;SDS011;7640;53.116;6.878;2022-09-09T00:42:47;23.40;;;15.20;;
15082;SDS011;7640;53.116;6.878;2022-09-09T00:45:37;19.70;;;15.07;;
15082;SDS011;7640;53.116;6.878;2022-09-09T00:48:24;19.47;;;13.50;;
15082;SDS011;7640;53.116;6.878;2022-09-09T00:51:03;17.10;;;13.13;;
15082;SDS011;7640;53.116;6.878;2022-09-09T00:53:38;21.47;;;13.53;;
15082;SDS011;7640;53.116;6.878;2022-09-09T00:56:20;20.63;;;14.40;;
15082;SDS011;7640;53.116;6.878;2022-09-09T00:58:55;20.60;;;13.80;;
15082;SDS011;7640;53.116;6.878;2022-09-09T01:01:34;18.70;;;13.60;;
15082;SDS011;7640;53.116;6.878;2022-09-09T01:04:03;19.87;;;14.37;;
15082;SDS011;7640;53.116;6.878;2022-09-09T01:06:37;22.47;;;15.17;;
15082;SDS011;7640;53.116;6.878;2022-09-09T01:09:08;19.97;;;14.50;;
15082;SDS011;7640;53.116;6.878;2022-09-09T01:11:49;19.63;;;14.20;;
15082;SDS011;7640;53.116;6.878;2022-09-09T01:14:43;21.27;;;13.20;;
15082;SDS011;7640;53.116;6.878;2022-09-09T01:17:20;21.60;;;14.93;;
15082;SDS011;7640;53.116;6.878;2022-09-09T01:19:55;19.57;;;13.60;;
15082;SDS011;7640;53.116;6.878;2022-09-09T01:22:34;20.67;;;15.00;;
15082;SDS011;7640;53.116;6.878;2022-09-09T01:25:20;19.20;;;14.20;;
15082;SDS011;7640;53.116;6.878;2022-09-09T01:27:57;20.83;;;14.87;;
15082;SDS011;7640;53.116;6.878;2022-09-09T01:30:30;19.83;;;15.00;;
15082;SDS011;7640;53.116;6.878;2022-09-09T01:33:00;19.87;;;14.70;;
15082;SDS011;7640;53.116;6.878;2022-09-09T01:35:32;19.17;;;13.73;;
15082;SDS011;7640;53.116;6.878;2022-09-09T01:38:13;19.03;;;14.70;;
15082;SDS011;7640;53.116;6.878;2022-09-09T01:40:42;21.33;;;15.13;;
15082;SDS011;7640;53.116;6.878;2022-09-09T01:43:11;21.03;;;14.83;;
15082;SDS011;7640;53.116;6.878;2022-09-09T01:45:40;21.20;;;13.97;;
15082;SDS011;7640;53.116;6.878;2022-09-09T01:48:10;23.20;;;15.87;;
15082;SDS011;7640;53.116;6.878;2022-09-09T01:50:38;22.63;;;15.73;;
15082;SDS011;7640;53.116;6.878;2022-09-09T01:53:06;22.93;;;15.23;;
15082;SDS011;7640;53.116;6.878;2022-09-09T01:55:36;23.17;;;15.67;;
15082;SDS011;7640;53.116;6.878;2022-09-09T01:58:13;28.27;;;15.70;;
15082;SDS011;7640;53.116;6.878;2022-09-09T02:00:57;19.37;;;14.40;;
15082;SDS011;7640;53.116;6.878;2022-09-09T02:03:38;26.63;;;14.87;;
15082;SDS011;7640;53.116;6.878;2022-09-09T02:06:14;19.67;;;14.33;;
15082;SDS011;7640;53.116;6.878;2022-09-09T02:08:55;17.37;;;13.50;;
15082;SDS011;7640;53.116;6.878;2022-09-09T02:11:26;18.43;;;13.77;;
15082;SDS011;7640;53.116;6.878;2022-09-09T02:13:59;19.43;;;13.37;;
15082;SDS011;7640;53.116;6.878;2022-09-09T02:16:31;18.77;;;13.23;;
15082;SDS011;7640;53.116;6.878;2022-09-09T02:19:06;17.53;;;12.83;;
15082;SDS011;7640;53.116;6.878;2022-09-09T02:21:39;21.67;;;13.57;;
15082;SDS011;7640;53.116;6.878;2022-09-09T02:24:12;16.90;;;12.40;;
15082;SDS011;7640;53.116;6.878;2022-09-09T02:26:43;16.97;;;12.23;;
15082;SDS011;7640;53.116;6.878;2022-09-09T02:29:18;18.27;;;12.97;;
15082;SDS011;7640;53.116;6.878;2022-09-09T02:31:50;15.00;;;11.73;;
15082;SDS011;7640;53.116;6.878;2022-09-09T02:34:21;18.40;;;12.40;;
15082;SDS011;7640;53.116;6.878;2022-09-09T02:36:51;17.90;;;12.73;;
15082;SDS011;7640;53.116;6.878;2022-09-09T02:39:22;14.90;;;12.33;;
15082;SDS011;7640;53.116;6.878;2022-09-09T02:41:50;16.33;;;12.67;;
15082;SDS011;7640;53.116;6.878;2022-09-09T02:44:20;15.30;;;11.83;;
15082;SDS011;7640;53.116;6.878;2022-09-09T02:46:53;16.70;;;11.67;;
15082;SDS011;7640;53.116;6.878;2022-09-09T02:49:46;17.30;;;11.93;;
15082;SDS011;7640;53.116;6.878;2022-09-09T02:52:32;20.00;;;12.13;;
15082;SDS011;7640;53.116;6.878;2022-09-09T02:55:10;19.07;;;10.97;;
15082;SDS011;7640;53.116;6.878;2022-09-09T02:57:45;16.20;;;11.60;;
15082;SDS011;7640;53.116;6.878;2022-09-09T03:00:16;16.50;;;11.63;;
15082;SDS011;7640;53.116;6.878;2022-09-09T03:02:50;13.07;;;10.63;;
15082;SDS011;7640;53.116;6.878;2022-09-09T03:05:19;15.13;;;11.67;;
15082;SDS011;7640;53.116;6.878;2022-09-09T03:07:47;14.00;;;10.97;;
15082;SDS011;7640;53.116;6.878;2022-09-09T03:10:16;14.43;;;11.17;;
15082;SDS011;7640;53.116;6.878;2022-09-09T03:12:45;15.53;;;11.23;;
15082;SDS011;7640;53.116;6.878;2022-09-09T03:15:13;13.60;;;10.63;;
15082;SDS011;7640;53.116;6.878;2022-09-09T03:17:43;13.10;;;10.53;;
15082;SDS011;7640;53.116;6.878;2022-09-09T03:20:11;18.63;;;10.47;;
15082;SDS011;7640;53.116;6.878;2022-09-09T03:22:39;12.80;;;10.47;;
15082;SDS011;7640;53.116;6.878;2022-09-09T03:25:07;13.37;;;9.77;;
15082;SDS011;7640;53.116;6.878;2022-09-09T03:27:36;15.63;;;9.97;;
15082;SDS011;7640;53.116;6.878;2022-09-09T03:30:04;13.90;;;9.60;;
15082;SDS011;7640;53.116;6.878;2022-09-09T03:32:34;15.83;;;9.43;;
15082;SDS011;7640;53.116;6.878;2022-09-09T03:35:03;13.53;;;8.77;;
15082;SDS011;7640;53.116;6.878;2022-09-09T03:37:32;13.17;;;9.23;;
15082;SDS011;7640;53.116;6.878;2022-09-09T03:40:00;12.00;;;9.00;;
15082;SDS011;7640;53.116;6.878;2022-09-09T03:42:28;15.00;;;9.20;;
15082;SDS011;7640;53.116;6.878;2022-09-09T03:44:57;14.40;;;9.53;;
15082;SDS011;7640;53.116;6.878;2022-09-09T03:47:26;13.23;;;9.50;;
15082;SDS011;7640;53.116;6.878;2022-09-09T03:49:56;13.47;;;9.57;;
15082;SDS011;7640;53.116;6.878;2022-09-09T03:52:24;12.20;;;8.93;;
15082;SDS011;7640;53.116;6.878;2022-09-09T03:54:52;16.43;;;9.77;;
15082;SDS011;7640;53.116;6.878;2022-09-09T03:57:21;13.50;;;10.03;;
15082;SDS011;7640;53.116;6.878;2022-09-09T03:59:49;14.57;;;9.70;;
15082;SDS011;7640;53.116;6.878;2022-09-09T04:02:17;13.77;;;9.80;;
15082;SDS011;7640;53.116;6.878;2022-09-09T04:04:47;13.53;;;9.17;;
15082;SDS011;7640;53.116;6.878;2022-09-09T04:07:16;12.77;;;9.67;;
15082;SDS011;7640;53.116;6.878;2022-09-09T04:09:44;11.47;;;8.87;;
15082;SDS011;7640;53.116;6.878;2022-09-09T04:12:12;15.03;;;9.17;;
15082;SDS011;7640;53.116;6.878;2022-09-09T04:14:40;12.30;;;9.17;;
15082;SDS011;7640;53.116;6.878;2022-09-09T04:17:09;14.10;;;9.30;;
15082;SDS011;7640;53.116;6.878;2022-09-09T04:19:37;14.50;;;8.57;;
15082;SDS011;7640;53.116;6.878;2022-09-09T04:22:05;10.37;;;8.07;;
15082;SDS011;7640;53.116;6.878;2022-09-09T04:24:34;12.20;;;7.70;;
15082;SDS011;7640;53.116;6.878;2022-09-09T04:27:03;14.17;;;8.00;;
15082;SDS011;7640;53.116;6.878;2022-09-09T04:29:31;9.93;;;7.60;;
15082;SDS011;7640;53.116;6.878;2022-09-09T04:31:59;11.10;;;7.60;;
15082;SDS011;7640;53.116;6.878;2022-09-09T04:34:28;9.43;;;6.40;;
15082;SDS011;7640;53.116;6.878;2022-09-09T04:36:56;8.77;;;6.10;;
15082;SDS011;7640;53.116;6.878;2022-09-09T04:39:25;9.77;;;6.53;;
15082;SDS011;7640;53.116;6.878;2022-09-09T04:41:54;10.80;;;6.80;;
15082;SDS011;7640;53.116;6.878;2022-09-09T04:44:22;10.23;;;7.07;;
15082;SDS011;7640;53.116;6.878;2022-09-09T04:46:50;11.63;;;7.57;;
15082;SDS011;7640;53.116;6.878;2022-09-09T04:49:18;11.93;;;8.03;;
15082;SDS011;7640;53.116;6.878;2022-09-09T04:51:48;13.23;;;8.03;;
15082;SDS011;7640;53.116;6.878;2022-09-09T04:54:16;15.10;;;9.40;;
15082;SDS011;7640;53.116;6.878;2022-09-09T04:56:45;14.13;;;9.30;;
15082;SDS011;7640;53.116;6.878;2022-09-09T04:59:14;13.30;;;9.27;;
15082;SDS011;7640;53.116;6.878;2022-09-09T05:01:43;11.57;;;9.00;;
15082;SDS011;7640;53.116;6.878;2022-09-09T05:04:11;12.60;;;8.70;;
15082;SDS011;7640;53.116;6.878;2022-09-09T05:06:40;13.30;;;9.10;;
15082;SDS011;7640;53.116;6.878;2022-09-09T05:09:09;13.47;;;9.07;;
15082;SDS011;7640;53.116;6.878;2022-09-09T05:11:37;12.10;;;9.13;;
15082;SDS011;7640;53.116;6.878;2022-09-09T05:14:05;12.67;;;8.53;;
15082;SDS011;7640;53.116;6.878;2022-09-09T05:16:34;13.43;;;8.90;;
15082;SDS011;7640;53.116;6.878;2022-09-09T05:19:03;15.37;;;9.57;;
15082;SDS011;7640;53.116;6.878;2022-09-09T05:21:31;19.57;;;11.50;;
15082;SDS011;7640;53.116;6.878;2022-09-09T05:23:59;22.57;;;12.17;;
15082;SDS011;7640;53.116;6.878;2022-09-09T05:26:28;26.83;;;12.93;;
15082;SDS011;7640;53.116;6.878;2022-09-09T05:28:57;29.20;;;13.73;;
15082;SDS011;7640;53.116;6.878;2022-09-09T05:31:26;27.17;;;13.87;;
15082;SDS011;7640;53.116;6.878;2022-09-09T05:33:58;27.33;;;13.03;;
15082;SDS011;7640;53.116;6.878;2022-09-09T05:36:27;25.50;;;12.97;;
15082;SDS011;7640;53.116;6.878;2022-09-09T05:38:55;23.10;;;12.30;;
15082;SDS011;7640;53.116;6.878;2022-09-09T05:41:23;19.00;;;11.67;;
15082;SDS011;7640;53.116;6.878;2022-09-09T05:43:53;20.67;;;10.90;;
15082;SDS011;7640;53.116;6.878;2022-09-09T05:46:22;19.17;;;10.67;;
15082;SDS011;7640;53.116;6.878;2022-09-09T05:48:52;15.13;;;10.20;;
15082;SDS011;7640;53.116;6.878;2022-09-09T05:51:23;15.23;;;9.33;;
15082;SDS011;7640;53.116;6.878;2022-09-09T05:53:54;14.63;;;9.40;;
15082;SDS011;7640;53.116;6.878;2022-09-09T05:56:25;17.07;;;9.47;;
15082;SDS011;7640;53.116;6.878;2022-09-09T05:58:55;16.73;;;9.50;;
15082;SDS011;7640;53.116;6.878;2022-09-09T06:01:26;16.03;;;9.37;;
15082;SDS011;7640;53.116;6.878;2022-09-09T06:03:56;13.57;;;9.43;;
15082;SDS011;7640;53.116;6.878;2022-09-09T06:06:27;14.70;;;9.10;;
15082;SDS011;7640;53.116;6.878;2022-09-09T06:09:03;12.60;;;8.87;;
15082;SDS011;7640;53.116;6.878;2022-09-09T06:11:36;14.67;;;9.17;;
15082;SDS011;7640;53.116;6.878;2022-09-09T06:14:06;16.13;;;9.37;;
15082;SDS011;7640;53.116;6.878;2022-09-09T06:16:35;14.83;;;9.47;;
15082;SDS011;7640;53.116;6.878;2022-09-09T06:19:04;12.63;;;8.93;;
15082;SDS011;7640;53.116;6.878;2022-09-09T06:21:34;16.37;;;10.20;;
15082;SDS011;7640;53.116;6.878;2022-09-09T06:24:04;14.97;;;9.57;;
15082;SDS011;7640;53.116;6.878;2022-09-09T06:26:34;15.30;;;9.23;;
15082;SDS011;7640;53.116;6.878;2022-09-09T06:29:03;13.87;;;9.77;;
15082;SDS011;7640;53.116;6.878;2022-09-09T06:31:32;16.60;;;9.03;;
15082;SDS011;7640;53.116;6.878;2022-09-09T06:34:04;12.50;;;9.30;;
15082;SDS011;7640;53.116;6.878;2022-09-09T06:36:35;13.23;;;8.93;;
15082;SDS011;7640;53.116;6.878;2022-09-09T06:39:05;14.00;;;9.30;;
15082;SDS011;7640;53.116;6.878;2022-09-09T06:41:40;13.17;;;8.90;;
15082;SDS011;7640;53.116;6.878;2022-09-09T06:44:09;13.10;;;8.63;;
15082;SDS011;7640;53.116;6.878;2022-09-09T06:46:38;13.77;;;9.10;;
15082;SDS011;7640;53.116;6.878;2022-09-09T06:49:07;13.20;;;9.73;;
15082;SDS011;7640;53.116;6.878;2022-09-09T06:51:37;10.97;;;8.47;;
15082;SDS011;7640;53.116;6.878;2022-09-09T06:54:09;14.53;;;8.87;;
15082;SDS011;7640;53.116;6.878;2022-09-09T06:56:39;11.77;;;8.43;;
15082;SDS011;7640;53.116;6.878;2022-09-09T06:59:09;11.73;;;9.03;;
15082;SDS011;7640;53.116;6.878;2022-09-09T07:01:38;14.43;;;9.53;;
15082;SDS011;7640;53.116;6.878;2022-09-09T07:04:10;20.37;;;9.67;;
15082;SDS011;7640;53.116;6.878;2022-09-09T07:06:40;14.73;;;8.77;;
15082;SDS011;7640;53.116;6.878;2022-09-09T07:09:11;12.63;;;7.60;;
15082;SDS011;7640;53.116;6.878;2022-09-09T07:11:42;10.20;;;8.10;;
15082;SDS011;7640;53.116;6.878;2022-09-09T07:14:12;13.03;;;8.47;;
15082;SDS011;7640;53.116;6.878;2022-09-09T07:16:42;14.47;;;8.60;;
15082;SDS011;7640;53.116;6.878;2022-09-09T07:19:12;13.00;;;8.80;;
15082;SDS011;7640;53.116;6.878;2022-09-09T07:21:42;15.63;;;8.87;;
15082;SDS011;7640;53.116;6.878;2022-09-09T07:24:11;10.40;;;7.80;;
15082;SDS011;7640;53.116;6.878;2022-09-09T07:26:39;12.17;;;8.07;;
15082;SDS011;7640;53.116;6.878;2022-09-09T07:29:08;12.47;;;8.10;;
15082;SDS011;7640;53.116;6.878;2022-09-09T07:31:45;9.13;;;7.17;;
15082;SDS011;7640;53.116;6.878;2022-09-09T07:34:14;9.63;;;7.07;;
15082;SDS011;7640;53.116;6.878;2022-09-09T07:36:44;8.97;;;6.87;;
15082;SDS011;7640;53.116;6.878;2022-09-09T07:39:13;9.77;;;7.17;;
15082;SDS011;7640;53.116;6.878;2022-09-09T07:41:44;14.43;;;7.70;;
15082;SDS011;7640;53.116;6.878;2022-09-09T07:44:15;10.87;;;7.40;;
15082;SDS011;7640;53.116;6.878;2022-09-09T07:46:47;13.63;;;6.87;;
15082;SDS011;7640;53.116;6.878;2022-09-09T07:49:15;10.63;;;7.27;;
15082;SDS011;7640;53.116;6.878;2022-09-09T07:51:52;9.60;;;6.97;;
15082;SDS011;7640;53.116;6.878;2022-09-09T07:54:21;9.67;;;6.83;;
15082;SDS011;7640;53.116;6.878;2022-09-09T07:56:50;10.83;;;6.60;;
15082;SDS011;7640;53.116;6.878;2022-09-09T07:59:19;8.80;;;6.53;;
15082;SDS011;7640;53.116;6.878;2022-09-09T08:01:48;7.43;;;5.70;;
15082;SDS011;7640;53.116;6.878;2022-09-09T08:04:21;7.27;;;6.10;;
15082;SDS011;7640;53.116;6.878;2022-09-09T08:06:53;10.03;;;6.17;;
15082;SDS011;7640;53.116;6.878;2022-09-09T08:09:24;7.97;;;5.80;;
15082;SDS011;7640;53.116;6.878;2022-09-09T08:11:55;9.77;;;6.07;;
15082;SDS011;7640;53.116;6.878;2022-09-09T08:14:24;6.30;;;5.70;;
15082;SDS011;7640;53.116;6.878;2022-09-09T08:16:52;9.60;;;5.37;;
15082;SDS011;7640;53.116;6.878;2022-09-09T08:19:21;9.00;;;5.50;;
15082;SDS011;7640;53.116;6.878;2022-09-09T08:21:52;6.17;;;5.20;;
15082;SDS011;7640;53.116;6.878;2022-09-09T08:24:20;8.07;;;5.70;;
15082;SDS011;7640;53.116;6.878;2022-09-09T08:26:49;8.13;;;5.23;;
15082;SDS011;7640;53.116;6.878;2022-09-09T08:29:17;9.30;;;5.50;;
15082;SDS011;7640;53.116;6.878;2022-09-09T08:31:46;10.67;;;5.93;;
15082;SDS011;7640;53.116;6.878;2022-09-09T08:34:18;8.47;;;5.40;;
15082;SDS011;7640;53.116;6.878;2022-09-09T08:36:48;8.33;;;5.10;;
15082;SDS011;7640;53.116;6.878;2022-09-09T08:39:19;8.90;;;6.00;;
15082;SDS011;7640;53.116;6.878;2022-09-09T08:45:00;7.37;;;5.07;;
15082;SDS011;7640;53.116;6.878;2022-09-09T08:47:54;8.13;;;5.33;;
15082;SDS011;7640;53.116;6.878;2022-09-09T08:50:35;7.83;;;5.47;;
15082;SDS011;7640;53.116;6.878;2022-09-09T08:53:09;7.83;;;5.90;;
15082;SDS011;7640;53.116;6.878;2022-09-09T08:55:46;8.53;;;5.67;;
15082;SDS011;7640;53.116;6.878;2022-09-09T08:58:17;7.57;;;5.93;;
15082;SDS011;7640;53.116;6.878;2022-09-09T09:00:59;7.97;;;5.90;;
15082;SDS011;7640;53.116;6.878;2022-09-09T09:03:51;8.30;;;5.70;;
15082;SDS011;7640;53.116;6.878;2022-09-09T09:06:31;5.93;;;4.50;;
15082;SDS011;7640;53.116;6.878;2022-09-09T09:09:11;6.27;;;5.07;;
15082;SDS011;7640;53.116;6.878;2022-09-09T09:11:47;6.07;;;4.60;;
15082;SDS011;7640;53.116;6.878;2022-09-09T09:14:18;7.17;;;4.53;;
15082;SDS011;7640;53.116;6.878;2022-09-09T09:16:50;6.17;;;4.70;;
15082;SDS011;7640;53.116;6.878;2022-09-09T09:19:23;7.13;;;4.50;;
15082;SDS011;7640;53.116;6.878;2022-09-09T09:21:54;6.30;;;4.63;;
15082;SDS011;7640;53.116;6.878;2022-09-09T09:24:30;5.50;;;3.90;;
15082;SDS011;7640;53.116;6.878;2022-09-09T09:27:13;6.57;;;3.93;;
15082;SDS011;7640;53.116;6.878;2022-09-09T09:29:46;5.07;;;3.73;;
15082;SDS011;7640;53.116;6.878;2022-09-09T09:32:36;7.27;;;3.40;;
15082;SDS011;7640;53.116;6.878;2022-09-09T09:35:09;5.90;;;3.57;;
15082;SDS011;7640;53.116;6.878;2022-09-09T09:37:41;6.63;;;4.17;;
15082;SDS011;7640;53.116;6.878;2022-09-09T09:40:31;4.67;;;3.53;;
15082;SDS011;7640;53.116;6.878;2022-09-09T09:43:01;6.93;;;3.97;;
15082;SDS011;7640;53.116;6.878;2022-09-09T09:45:35;5.90;;;3.40;;
15082;SDS011;7640;53.116;6.878;2022-09-09T09:48:30;7.80;;;4.30;;
15082;SDS011;7640;53.116;6.878;2022-09-09T09:50:59;6.40;;;3.93;;
15082;SDS011;7640;53.116;6.878;2022-09-09T09:53:34;6.53;;;3.70;;
15082;SDS011;7640;53.116;6.878;2022-09-09T09:56:05;7.10;;;3.60;;
15082;SDS011;7640;53.116;6.878;2022-09-09T09:58:46;7.20;;;3.57;;
15082;SDS011;7640;53.116;6.878;2022-09-09T10:01:18;6.53;;;3.33;;
15082;SDS011;7640;53.116;6.878;2022-09-09T10:03:52;6.20;;;3.70;;
15082;SDS011;7640;53.116;6.878;2022-09-09T10:06:31;10.73;;;3.97;;
15082;SDS011;7640;53.116;6.878;2022-09-09T10:09:02;6.50;;;3.10;;
15082;SDS011;7640;53.116;6.878;2022-09-09T10:11:38;8.13;;;3.50;;
15082;SDS011;7640;53.116;6.878;2022-09-09T10:14:16;7.03;;;3.57;;
15082;SDS011;7640;53.116;6.878;2022-09-09T10:16:51;6.50;;;3.03;;
15082;SDS011;7640;53.116;6.878;2022-09-09T10:19:31;7.37;;;3.30;;
15082;SDS011;7640;53.116;6.878;2022-09-09T10:22:04;6.23;;;3.10;;
15082;SDS011;7640;53.116;6.878;2022-09-09T10:24:57;6.50;;;2.90;;
15082;SDS011;7640;53.116;6.878;2022-09-09T10:27:43;8.60;;;3.10;;
15082;SDS011;7640;53.116;6.878;2022-09-09T10:30:31;7.55;;;3.03;;
15082;SDS011;7640;53.116;6.878;2022-09-09T10:33:10;6.53;;;3.53;;
15082;SDS011;7640;53.116;6.878;2022-09-09T10:35:50;6.57;;;3.00;;
15082;SDS011;7640;53.116;6.878;2022-09-09T10:38:27;6.67;;;2.83;;
15082;SDS011;7640;53.116;6.878;2022-09-09T10:41:06;7.80;;;3.40;;
15082;SDS011;7640;53.116;6.878;2022-09-09T10:46:55;8.47;;;3.00;;
15082;SDS011;7640;53.116;6.878;2022-09-09T10:49:48;9.30;;;3.13;;
15082;SDS011;7640;53.116;6.878;2022-09-09T10:52:36;5.03;;;2.50;;
15082;SDS011;7640;53.116;6.878;2022-09-09T10:55:15;5.83;;;2.50;;
15082;SDS011;7640;53.116;6.878;2022-09-09T10:57:46;8.03;;;2.67;;
15082;SDS011;7640;53.116;6.878;2022-09-09T11:00:17;7.17;;;2.63;;
15082;SDS011;7640;53.116;6.878;2022-09-09T11:02:51;6.07;;;2.13;;
15082;SDS011;7640;53.116;6.878;2022-09-09T11:05:25;3.67;;;1.80;;
15082;SDS011;7640;53.116;6.878;2022-09-09T11:08:01;3.50;;;1.97;;
15082;SDS011;7640;53.116;6.878;2022-09-09T11:10:36;4.28;;;2.20;;
15082;SDS011;7640;53.116;6.878;2022-09-09T11:13:09;6.47;;;2.22;;
15082;SDS011;7640;53.116;6.878;2022-09-09T11:15:45;4.50;;;1.80;;
15082;SDS011;7640;53.116;6.878;2022-09-09T11:18:20;5.43;;;1.70;;
15082;SDS011;7640;53.116;6.878;2022-09-09T11:20:51;5.43;;;2.10;;
15082;SDS011;7640;53.116;6.878;2022-09-09T11:23:26;5.82;;;1.98;;
15082;SDS011;7640;53.116;6.878;2022-09-09T11:26:07;6.82;;;1.90;;
15082;SDS011;7640;53.116;6.878;2022-09-09T11:28:45;3.97;;;1.70;;
15082;SDS011;7640;53.116;6.878;2022-09-09T11:34:31;4.75;;;1.90;;
15082;SDS011;7640;53.116;6.878;2022-09-09T11:37:23;6.00;;;2.05;;
15082;SDS011;7640;53.116;6.878;2022-09-09T11:40:57;5.82;;;2.20;;
15082;SDS011;7640;53.116;6.878;2022-09-09T11:43:28;3.92;;;1.88;;
15082;SDS011;7640;53.116;6.878;2022-09-09T11:46:01;6.20;;;2.00;;
15082;SDS011;7640;53.116;6.878;2022-09-09T11:48:32;5.13;;;2.10;;
15082;SDS011;7640;53.116;6.878;2022-09-09T11:51:05;7.07;;;2.58;;
15082;SDS011;7640;53.116;6.878;2022-09-09T11:53:48;5.28;;;2.30;;
15082;SDS011;7640;53.116;6.878;2022-09-09T11:56:25;4.75;;;2.00;;
15082;SDS011;7640;53.116;6.878;2022-09-09T11:58:57;7.82;;;2.00;;
15082;SDS011;7640;53.116;6.878;2022-09-09T12:01:33;3.88;;;1.92;;
15082;SDS011;7640;53.116;6.878;2022-09-09T12:04:14;4.68;;;1.88;;
15082;SDS011;7640;53.116;6.878;2022-09-09T12:07:00;4.43;;;2.03;;
15082;SDS011;7640;53.116;6.878;2022-09-09T12:09:33;4.10;;;1.73;;
15082;SDS011;7640;53.116;6.878;2022-09-09T12:12:21;4.25;;;1.58;;
15082;SDS011;7640;53.116;6.878;2022-09-09T12:14:57;5.68;;;1.63;;
15082;SDS011;7640;53.116;6.878;2022-09-09T12:17:29;4.80;;;1.50;;
15082;SDS011;7640;53.116;6.878;2022-09-09T12:20:00;5.78;;;1.55;;
15082;SDS011;7640;53.116;6.878;2022-09-09T12:22:37;2.85;;;1.30;;
15082;SDS011;7640;53.116;6.878;2022-09-09T12:25:23;3.92;;;1.58;;
15082;SDS011;7640;53.116;6.878;2022-09-09T12:28:05;2.72;;;1.15;;
15082;SDS011;7640;53.116;6.878;2022-09-09T12:30:44;2.42;;;1.45;;
15082;SDS011;7640;53.116;6.878;2022-09-09T12:33:18;4.40;;;1.70;;
15082;SDS011;7640;53.116;6.878;2022-09-09T12:35:50;3.65;;;1.23;;
15082;SDS011;7640;53.116;6.878;2022-09-09T12:38:26;5.00;;;1.35;;
15082;SDS011;7640;53.116;6.878;2022-09-09T12:40:59;4.78;;;1.67;;
15082;SDS011;7640;53.116;6.878;2022-09-09T12:43:27;5.32;;;1.98;;
15082;SDS011;7640;53.116;6.878;2022-09-09T12:45:57;4.53;;;1.48;;
15082;SDS011;7640;53.116;6.878;2022-09-09T12:48:30;5.15;;;1.60;;
15082;SDS011;7640;53.116;6.878;2022-09-09T12:51:03;3.70;;;1.80;;
15082;SDS011;7640;53.116;6.878;2022-09-09T12:53:47;3.30;;;1.60;;
15082;SDS011;7640;53.116;6.878;2022-09-09T12:56:19;2.95;;;1.40;;
15082;SDS011;7640;53.116;6.878;2022-09-09T12:58:50;4.15;;;1.48;;
15082;SDS011;7640;53.116;6.878;2022-09-09T13:01:21;2.53;;;1.35;;
15082;SDS011;7640;53.116;6.878;2022-09-09T13:03:52;3.60;;;1.25;;
15082;SDS011;7640;53.116;6.878;2022-09-09T13:06:22;4.68;;;1.35;;
15082;SDS011;7640;53.116;6.878;2022-09-09T13:08:57;3.20;;;1.20;;
15082;SDS011;7640;53.116;6.878;2022-09-09T13:11:29;3.97;;;1.48;;
15082;SDS011;7640;53.116;6.878;2022-09-09T13:14:04;3.20;;;1.73;;
15082;SDS011;7640;53.116;6.878;2022-09-09T13:16:34;3.40;;;1.50;;
15082;SDS011;7640;53.116;6.878;2022-09-09T13:19:08;5.32;;;1.73;;
15082;SDS011;7640;53.116;6.878;2022-09-09T13:21:42;4.15;;;1.50;;
15082;SDS011;7640;53.116;6.878;2022-09-09T13:24:24;3.30;;;1.40;;
15082;SDS011;7640;53.116;6.878;2022-09-09T13:26:56;9.48;;;1.35;;
15082;SDS011;7640;53.116;6.878;2022-09-09T13:29:26;2.60;;;1.40;;
15082;SDS011;7640;53.116;6.878;2022-09-09T13:32:02;4.03;;;1.45;;
15082;SDS011;7640;53.116;6.878;2022-09-09T13:34:34;3.38;;;1.30;;
15082;SDS011;7640;53.116;6.878;2022-09-09T13:37:03;4.40;;;1.50;;
15082;SDS011;7640;53.116;6.878;2022-09-09T13:39:35;2.45;;;1.13;;
15082;SDS011;7640;53.116;6.878;2022-09-09T13:42:05;3.88;;;1.83;;
15082;SDS011;7640;53.116;6.878;2022-09-09T13:44:46;5.45;;;2.13;;
15082;SDS011;7640;53.116;6.878;2022-09-09T13:47:17;4.22;;;2.45;;
15082;SDS011;7640;53.116;6.878;2022-09-09T13:49:47;4.38;;;1.55;;
15082;SDS011;7640;53.116;6.878;2022-09-09T13:52:16;4.70;;;1.70;;
15082;SDS011;7640;53.116;6.878;2022-09-09T13:54:48;3.80;;;1.50;;
15082;SDS011;7640;53.116;6.878;2022-09-09T13:57:18;4.32;;;1.30;;
15082;SDS011;7640;53.116;6.878;2022-09-09T13:59:48;6.28;;;1.58;;
15082;SDS011;7640;53.116;6.878;2022-09-09T14:02:30;3.63;;;1.33;;
15082;SDS011;7640;53.116;6.878;2022-09-09T14:04:58;4.35;;;1.70;;
15082;SDS011;7640;53.116;6.878;2022-09-09T14:07:27;4.60;;;1.50;;
15082;SDS011;7640;53.116;6.878;2022-09-09T14:09:56;3.63;;;1.33;;
15082;SDS011;7640;53.116;6.878;2022-09-09T14:12:26;4.38;;;1.60;;
15082;SDS011;7640;53.116;6.878;2022-09-09T14:14:54;3.28;;;1.60;;
15082;SDS011;7640;53.116;6.878;2022-09-09T14:17:22;5.65;;;1.60;;
15082;SDS011;7640;53.116;6.878;2022-09-09T14:19:51;3.17;;;1.60;;
15082;SDS011;7640;53.116;6.878;2022-09-09T14:22:19;4.82;;;1.77;;
15082;SDS011;7640;53.116;6.878;2022-09-09T14:24:47;2.53;;;1.40;;
15082;SDS011;7640;53.116;6.878;2022-09-09T14:27:17;3.22;;;1.38;;
15082;SDS011;7640;53.116;6.878;2022-09-09T14:29:46;3.10;;;1.73;;
15082;SDS011;7640;53.116;6.878;2022-09-09T14:32:14;5.63;;;1.45;;
15082;SDS011;7640;53.116;6.878;2022-09-09T14:34:42;4.57;;;1.48;;
15082;SDS011;7640;53.116;6.878;2022-09-09T14:37:10;5.43;;;1.70;;
15082;SDS011;7640;53.116;6.878;2022-09-09T14:39:38;6.93;;;1.65;;
15082;SDS011;7640;53.116;6.878;2022-09-09T14:42:06;4.97;;;1.77;;
15082;SDS011;7640;53.116;6.878;2022-09-09T14:44:38;4.68;;;1.80;;
15082;SDS011;7640;53.116;6.878;2022-09-09T14:47:06;4.07;;;1.77;;
15082;SDS011;7640;53.116;6.878;2022-09-09T14:49:35;5.20;;;2.13;;
15082;SDS011;7640;53.116;6.878;2022-09-09T14:52:07;11.35;;;2.15;;
15082;SDS011;7640;53.116;6.878;2022-09-09T14:54:36;4.65;;;1.70;;
15082;SDS011;7640;53.116;6.878;2022-09-09T14:57:04;5.53;;;2.23;;
15082;SDS011;7640;53.116;6.878;2022-09-09T14:59:32;6.30;;;2.30;;
15082;SDS011;7640;53.116;6.878;2022-09-09T15:02:02;4.00;;;2.10;;
15082;SDS011;7640;53.116;6.878;2022-09-09T15:04:30;10.18;;;2.20;;
15082;SDS011;7640;53.116;6.878;2022-09-09T15:06:59;5.40;;;2.38;;
15082;SDS011;7640;53.116;6.878;2022-09-09T15:09:27;5.53;;;2.23;;
15082;SDS011;7640;53.116;6.878;2022-09-09T15:11:55;4.40;;;1.85;;
15082;SDS011;7640;53.116;6.878;2022-09-09T15:14:23;3.33;;;1.60;;
15082;SDS011;7640;53.116;6.878;2022-09-09T15:16:53;4.03;;;1.38;;
15082;SDS011;7640;53.116;6.878;2022-09-09T15:19:22;3.57;;;1.37;;
15082;SDS011;7640;53.116;6.878;2022-09-09T15:21:51;1.77;;;1.10;;
15082;SDS011;7640;53.116;6.878;2022-09-09T15:24:19;1.20;;;0.90;;
15082;SDS011;7640;53.116;6.878;2022-09-09T15:26:47;2.73;;;1.10;;
15082;SDS011;7640;53.116;6.878;2022-09-09T15:29:15;1.70;;;0.77;;
15082;SDS011;7640;53.116;6.878;2022-09-09T15:31:45;1.87;;;1.00;;
15082;SDS011;7640;53.116;6.878;2022-09-09T15:34:13;3.77;;;1.00;;